sensor_id;sensor_type;location;lat;lon;timestamp;pressure;altitude;pressure_sealevel;temperature;humidity
43741;BME280;29352;48.708;9.290;2023-02-14T00:00:54;99703.81;;;-7.65;82.68
43741;BME280;29352;48.708;9.290;2023-02-14T00:03:20;99700.56;;;-7.70;84.70
43741;BME280;29352;48.708;9.290;2023-02-14T00:05:45;99696.94;;;-7.66;83.54
43741;BME280;29352;48.708;9.290;2023-02-14T00:08:11;99696.63;;;-7.80;81.65
43741;BME280;29352;48.708;9.290;2023-02-14T00:10:36;99686.84;;;-7.97;82.38
43741;BME280;29352;48.708;9.290;2023-02-14T00:13:03;99684.34;;;-7.98;84.86
43741;BME280;29352;48.708;9.290;2023-02-14T00:15:28;99683.66;;;-7.80;82.43
43741;BME280;29352;48.708;9.290;2023-02-14T00:17:56;99681.63;;;-7.95;82.45
43741;BME280;29352;48.708;9.290;2023-02-14T00:20:25;99681.94;;;-8.04;83.50
43741;BME280;29352;48.708;9.290;2023-02-14T00:22:51;99684.75;;;-8.11;83.84
43741;BME280;29352;48.708;9.290;2023-02-14T00:25:17;99685.78;;;-8.15;86.13
43741;BME280;29352;48.708;9.290;2023-02-14T00:27:43;99685.94;;;-7.96;85.33
43741;BME280;29352;48.708;9.290;2023-02-14T00:30:10;99685.44;;;-8.05;83.33
43741;BME280;29352;48.708;9.290;2023-02-14T00:32:41;99686.13;;;-8.00;82.79
43741;BME280;29352;48.708;9.290;2023-02-14T00:35:08;99680.94;;;-8.00;83.62
43741;BME280;29352;48.708;9.290;2023-02-14T00:37:35;99686.47;;;-8.10;84.73
43741;BME280;29352;48.708;9.290;2023-02-14T00:40:01;99685.22;;;-7.99;84.67
43741;BME280;29352;48.708;9.290;2023-02-14T00:42:27;99681.16;;;-7.83;84.61
43741;BME280;29352;48.708;9.290;2023-02-14T00:44:52;99684.78;;;-7.87;84.66
43741;BME280;29352;48.708;9.290;2023-02-14T00:47:17;99680.72;;;-7.71;83.89
43741;BME280;29352;48.708;9.290;2023-02-14T00:49:43;99681.34;;;-7.88;85.50
43741;BME280;29352;48.708;9.290;2023-02-14T00:52:08;99691.75;;;-7.89;86.40
43741;BME280;29352;48.708;9.290;2023-02-14T00:54:34;99690.06;;;-7.90;83.67
43741;BME280;29352;48.708;9.290;2023-02-14T00:56:59;99686.66;;;-7.67;83.64
43741;BME280;29352;48.708;9.290;2023-02-14T00:59:24;99687.31;;;-7.86;85.10
43741;BME280;29352;48.708;9.290;2023-02-14T01:01:50;99687.31;;;-7.62;84.61
43741;BME280;29352;48.708;9.290;2023-02-14T01:04:16;99687.00;;;-7.54;83.17
43741;BME280;29352;48.708;9.290;2023-02-14T01:06:41;99682.53;;;-7.73;85.61
43741;BME280;29352;48.708;9.290;2023-02-14T01:09:07;99691.97;;;-7.48;86.39
43741;BME280;29352;48.708;9.290;2023-02-14T01:11:33;99693.22;;;-7.82;84.93
43741;BME280;29352;48.708;9.290;2023-02-14T01:13:59;99689.25;;;-8.16;82.31
43741;BME280;29352;48.708;9.290;2023-02-14T01:16:27;99686.84;;;-7.97;83.81
43741;BME280;29352;48.708;9.290;2023-02-14T01:18:53;99692.97;;;-7.99;85.48
43741;BME280;29352;48.708;9.290;2023-02-14T01:21:28;99690.84;;;-8.12;82.19
43741;BME280;29352;48.708;9.290;2023-02-14T01:24:00;99691.59;;;-8.08;82.22
43741;BME280;29352;48.708;9.290;2023-02-14T01:26:29;99681.13;;;-8.30;83.50
43741;BME280;29352;48.708;9.290;2023-02-14T01:28:55;99681.91;;;-8.28;84.04
43741;BME280;29352;48.708;9.290;2023-02-14T01:31:27;99681.50;;;-8.16;84.14
43741;BME280;29352;48.708;9.290;2023-02-14T01:33:55;99681.34;;;-8.36;84.18
43741;BME280;29352;48.708;9.290;2023-02-14T01:36:27;99678.69;;;-8.35;83.09
43741;BME280;29352;48.708;9.290;2023-02-14T01:39:01;99681.97;;;-8.54;81.85
43741;BME280;29352;48.708;9.290;2023-02-14T01:41:37;99684.59;;;-8.56;82.33
43741;BME280;29352;48.708;9.290;2023-02-14T01:47:04;99676.72;;;-8.78;83.75
43741;BME280;29352;48.708;9.290;2023-02-14T01:49:51;99683.22;;;-8.66;85.36
43741;BME280;29352;48.708;9.290;2023-02-14T01:52:27;99672.97;;;-8.44;88.58
43741;BME280;29352;48.708;9.290;2023-02-14T01:55:09;99676.38;;;-8.42;83.02
43741;BME280;29352;48.708;9.290;2023-02-14T01:57:49;99674.03;;;-8.75;82.10
43741;BME280;29352;48.708;9.290;2023-02-14T02:00:20;99673.75;;;-8.94;82.03
43741;BME280;29352;48.708;9.290;2023-02-14T02:03:07;99670.53;;;-9.00;83.98
43741;BME280;29352;48.708;9.290;2023-02-14T02:05:37;99680.19;;;-8.79;84.63
43741;BME280;29352;48.708;9.290;2023-02-14T02:08:09;99677.50;;;-8.76;83.68
43741;BME280;29352;48.708;9.290;2023-02-14T02:10:36;99667.31;;;-8.81;84.53
43741;BME280;29352;48.708;9.290;2023-02-14T02:13:05;99672.28;;;-8.74;85.24
43741;BME280;29352;48.708;9.290;2023-02-14T02:39:28;99666.03;;;-9.50;82.62
43741;BME280;29352;48.708;9.290;2023-02-14T02:48:09;99673.13;;;-9.57;82.22
43741;BME280;29352;48.708;9.290;2023-02-14T02:50:48;99679.53;;;-9.40;83.08
43741;BME280;29352;48.708;9.290;2023-02-14T02:53:43;99670.03;;;-9.40;83.38
43741;BME280;29352;48.708;9.290;2023-02-14T02:56:36;99662.03;;;-9.32;83.53
43741;BME280;29352;48.708;9.290;2023-02-14T02:59:20;99662.47;;;-9.46;84.03
43741;BME280;29352;48.708;9.290;2023-02-14T03:02:05;99656.59;;;-9.51;83.79
43741;BME280;29352;48.708;9.290;2023-02-14T03:04:44;99657.53;;;-9.54;82.37
43741;BME280;29352;48.708;9.290;2023-02-14T03:07:29;99662.97;;;-9.63;82.32
43741;BME280;29352;48.708;9.290;2023-02-14T03:20:52;99663.88;;;-9.36;80.73
43741;BME280;29352;48.708;9.290;2023-02-14T03:23:29;99662.63;;;-9.50;80.21
43741;BME280;29352;48.708;9.290;2023-02-14T03:26:19;99666.78;;;-9.74;81.47
43741;BME280;29352;48.708;9.290;2023-02-14T03:29:00;99664.78;;;-9.65;80.69
43741;BME280;29352;48.708;9.290;2023-02-14T03:34:24;99671.41;;;-9.86;84.63
43741;BME280;29352;48.708;9.290;2023-02-14T03:37:16;99671.19;;;-9.78;82.57
43741;BME280;29352;48.708;9.290;2023-02-14T03:42:40;99665.78;;;-9.70;85.59
43741;BME280;29352;48.708;9.290;2023-02-14T03:45:18;99661.19;;;-9.61;82.71
43741;BME280;29352;48.708;9.290;2023-02-14T03:47:55;99658.94;;;-9.43;81.34
43741;BME280;29352;48.708;9.290;2023-02-14T03:50:27;99663.28;;;-9.44;81.28
43741;BME280;29352;48.708;9.290;2023-02-14T03:52:58;99658.94;;;-9.43;81.83
43741;BME280;29352;48.708;9.290;2023-02-14T03:55:35;99652.53;;;-9.60;84.16
43741;BME280;29352;48.708;9.290;2023-02-14T03:58:30;99661.75;;;-9.79;83.88
43741;BME280;29352;48.708;9.290;2023-02-14T04:01:07;99653.69;;;-9.68;86.23
43741;BME280;29352;48.708;9.290;2023-02-14T04:03:47;99646.78;;;-9.41;85.91
43741;BME280;29352;48.708;9.290;2023-02-14T04:06:18;99652.34;;;-9.25;86.56
43741;BME280;29352;48.708;9.290;2023-02-14T04:08:44;99649.84;;;-9.27;86.95
43741;BME280;29352;48.708;9.290;2023-02-14T04:11:10;99649.63;;;-9.21;86.35
43741;BME280;29352;48.708;9.290;2023-02-14T04:13:37;99646.25;;;-9.23;83.65
43741;BME280;29352;48.708;9.290;2023-02-14T04:16:03;99644.44;;;-9.47;83.94
43741;BME280;29352;48.708;9.290;2023-02-14T04:18:29;99644.03;;;-9.63;82.91
43741;BME280;29352;48.708;9.290;2023-02-14T04:21:14;99646.47;;;-9.59;82.87
43741;BME280;29352;48.708;9.290;2023-02-14T04:23:40;99648.88;;;-9.53;82.03
43741;BME280;29352;48.708;9.290;2023-02-14T04:26:05;99646.38;;;-9.56;84.00
43741;BME280;29352;48.708;9.290;2023-02-14T04:28:32;99644.09;;;-9.65;84.82
43741;BME280;29352;48.708;9.290;2023-02-14T04:31:03;99645.31;;;-9.48;87.60
43741;BME280;29352;48.708;9.290;2023-02-14T04:33:31;99649.09;;;-9.31;87.25
43741;BME280;29352;48.708;9.290;2023-02-14T04:35:58;99639.00;;;-9.40;83.45
43741;BME280;29352;48.708;9.290;2023-02-14T04:38:24;99636.28;;;-9.63;84.72
43741;BME280;29352;48.708;9.290;2023-02-14T04:40:51;99638.84;;;-9.63;84.66
43741;BME280;29352;48.708;9.290;2023-02-14T04:43:17;99649.66;;;-9.79;84.42
43741;BME280;29352;48.708;9.290;2023-02-14T04:45:43;99635.72;;;-9.45;88.41
43741;BME280;29352;48.708;9.290;2023-02-14T04:48:09;99638.25;;;-9.43;85.12
43741;BME280;29352;48.708;9.290;2023-02-14T04:50:35;99643.16;;;-9.34;83.67
43741;BME280;29352;48.708;9.290;2023-02-14T04:53:00;99641.84;;;-9.47;82.55
43741;BME280;29352;48.708;9.290;2023-02-14T04:55:26;99635.44;;;-9.64;83.29
43741;BME280;29352;48.708;9.290;2023-02-14T04:57:51;99634.25;;;-9.25;84.31
43741;BME280;29352;48.708;9.290;2023-02-14T05:00:18;99642.38;;;-9.66;82.21
43741;BME280;29352;48.708;9.290;2023-02-14T05:02:43;99640.00;;;-9.72;82.93
43741;BME280;29352;48.708;9.290;2023-02-14T05:05:09;99647.59;;;-9.97;82.03
43741;BME280;29352;48.708;9.290;2023-02-14T05:07:34;99642.63;;;-10.03;81.78
43741;BME280;29352;48.708;9.290;2023-02-14T05:10:00;99637.81;;;-9.86;81.83
43741;BME280;29352;48.708;9.290;2023-02-14T05:12:26;99640.50;;;-9.90;83.22
43741;BME280;29352;48.708;9.290;2023-02-14T05:14:51;99638.84;;;-9.91;83.75
43741;BME280;29352;48.708;9.290;2023-02-14T05:17:17;99647.25;;;-9.85;82.72
43741;BME280;29352;48.708;9.290;2023-02-14T05:19:42;99635.19;;;-9.84;81.67
43741;BME280;29352;48.708;9.290;2023-02-14T05:22:08;99640.97;;;-10.06;81.75
43741;BME280;29352;48.708;9.290;2023-02-14T05:24:33;99640.94;;;-9.74;81.82
43741;BME280;29352;48.708;9.290;2023-02-14T05:26:59;99635.16;;;-9.83;82.54
43741;BME280;29352;48.708;9.290;2023-02-14T05:29:24;99632.75;;;-9.90;82.60
43741;BME280;29352;48.708;9.290;2023-02-14T05:31:50;99636.06;;;-9.85;84.46
43741;BME280;29352;48.708;9.290;2023-02-14T05:34:15;99641.38;;;-10.21;82.07
43741;BME280;29352;48.708;9.290;2023-02-14T05:36:41;99639.66;;;-9.89;82.36
43741;BME280;29352;48.708;9.290;2023-02-14T05:39:06;99638.66;;;-9.85;81.81
43741;BME280;29352;48.708;9.290;2023-02-14T05:41:31;99632.75;;;-9.90;83.05
43741;BME280;29352;48.708;9.290;2023-02-14T05:43:57;99641.72;;;-10.02;81.54
43741;BME280;29352;48.708;9.290;2023-02-14T05:46:22;99641.09;;;-10.10;81.75
43741;BME280;29352;48.708;9.290;2023-02-14T05:48:48;99646.53;;;-10.21;80.83
43741;BME280;29352;48.708;9.290;2023-02-14T05:51:13;99652.91;;;-10.02;81.04
43741;BME280;29352;48.708;9.290;2023-02-14T05:53:41;99651.75;;;-10.22;84.31
43741;BME280;29352;48.708;9.290;2023-02-14T05:56:07;99651.38;;;-10.09;87.27
43741;BME280;29352;48.708;9.290;2023-02-14T05:58:32;99646.50;;;-9.88;85.21
43741;BME280;29352;48.708;9.290;2023-02-14T06:00:59;99653.25;;;-9.83;83.42
43741;BME280;29352;48.708;9.290;2023-02-14T06:03:25;99658.44;;;-9.84;85.49
43741;BME280;29352;48.708;9.290;2023-02-14T06:05:50;99651.84;;;-9.94;82.96
43741;BME280;29352;48.708;9.290;2023-02-14T06:08:16;99655.31;;;-10.27;81.90
43741;BME280;29352;48.708;9.290;2023-02-14T06:10:41;99658.03;;;-10.31;82.35
43741;BME280;29352;48.708;9.290;2023-02-14T06:13:07;99656.38;;;-10.03;84.05
43741;BME280;29352;48.708;9.290;2023-02-14T06:15:34;99655.56;;;-10.05;83.18
43741;BME280;29352;48.708;9.290;2023-02-14T06:18:00;99661.09;;;-10.17;82.71
43741;BME280;29352;48.708;9.290;2023-02-14T06:20:26;99652.69;;;-10.25;81.28
43741;BME280;29352;48.708;9.290;2023-02-14T06:22:52;99662.31;;;-10.30;81.50
43741;BME280;29352;48.708;9.290;2023-02-14T06:25:18;99665.22;;;-10.11;81.97
43741;BME280;29352;48.708;9.290;2023-02-14T06:27:44;99664.06;;;-9.99;82.20
43741;BME280;29352;48.708;9.290;2023-02-14T06:30:11;99657.72;;;-9.89;83.91
43741;BME280;29352;48.708;9.290;2023-02-14T06:32:37;99663.56;;;-9.83;82.71
43741;BME280;29352;48.708;9.290;2023-02-14T06:35:04;99672.50;;;-9.94;81.40
43741;BME280;29352;48.708;9.290;2023-02-14T06:37:30;99663.44;;;-9.78;81.41
43741;BME280;29352;48.708;9.290;2023-02-14T06:39:56;99669.97;;;-9.96;81.47
43741;BME280;29352;48.708;9.290;2023-02-14T06:42:21;99664.41;;;-9.82;79.75
43741;BME280;29352;48.708;9.290;2023-02-14T06:44:47;99663.06;;;-9.66;79.86
43741;BME280;29352;48.708;9.290;2023-02-14T06:47:12;99666.91;;;-9.79;78.52
43741;BME280;29352;48.708;9.290;2023-02-14T06:49:38;99673.84;;;-8.44;79.66
43741;BME280;29352;48.708;9.290;2023-02-14T06:52:04;99671.53;;;-8.28;77.84
43741;BME280;29352;48.708;9.290;2023-02-14T06:54:30;99667.09;;;-8.24;78.27
43741;BME280;29352;48.708;9.290;2023-02-14T06:56:56;99667.88;;;-7.74;77.91
43741;BME280;29352;48.708;9.290;2023-02-14T06:59:21;99660.16;;;-7.08;75.85
43741;BME280;29352;48.708;9.290;2023-02-14T07:01:47;99654.28;;;-6.91;74.12
43741;BME280;29352;48.708;9.290;2023-02-14T07:04:12;99660.34;;;-6.29;73.95
43741;BME280;29352;48.708;9.290;2023-02-14T07:06:38;99658.66;;;-5.91;72.02
43741;BME280;29352;48.708;9.290;2023-02-14T07:09:04;99647.44;;;-5.17;72.32
43741;BME280;29352;48.708;9.290;2023-02-14T07:11:30;99648.41;;;-4.66;70.61
43741;BME280;29352;48.708;9.290;2023-02-14T07:13:56;99647.78;;;-4.89;70.03
43741;BME280;29352;48.708;9.290;2023-02-14T07:16:21;99658.44;;;-4.08;66.82
43741;BME280;29352;48.708;9.290;2023-02-14T07:18:47;99650.59;;;-3.42;64.79
43741;BME280;29352;48.708;9.290;2023-02-14T07:21:13;99650.66;;;-4.25;68.72
43741;BME280;29352;48.708;9.290;2023-02-14T07:23:38;99657.44;;;-4.39;68.52
43741;BME280;29352;48.708;9.290;2023-02-14T07:26:04;99654.41;;;-3.81;67.58
43741;BME280;29352;48.708;9.290;2023-02-14T07:28:29;99666.75;;;-3.51;66.24
43741;BME280;29352;48.708;9.290;2023-02-14T07:31:00;99666.19;;;-3.89;66.79
43741;BME280;29352;48.708;9.290;2023-02-14T07:33:26;99664.03;;;-4.32;67.37
43741;BME280;29352;48.708;9.290;2023-02-14T07:35:52;99664.31;;;-4.03;65.84
43741;BME280;29352;48.708;9.290;2023-02-14T07:38:17;99649.56;;;-3.23;65.49
43741;BME280;29352;48.708;9.290;2023-02-14T07:40:43;99648.72;;;-3.55;65.06
43741;BME280;29352;48.708;9.290;2023-02-14T07:43:08;99647.09;;;-2.50;63.97
43741;BME280;29352;48.708;9.290;2023-02-14T07:45:33;99649.56;;;-3.23;63.66
43741;BME280;29352;48.708;9.290;2023-02-14T07:47:59;99644.31;;;-2.77;63.80
43741;BME280;29352;48.708;9.290;2023-02-14T07:50:27;99641.47;;;-1.85;60.36
43741;BME280;29352;48.708;9.290;2023-02-14T07:52:53;99642.84;;;-1.10;58.97
43741;BME280;29352;48.708;9.290;2023-02-14T07:55:20;99639.19;;;-1.63;60.80
43741;BME280;29352;48.708;9.290;2023-02-14T07:57:49;99640.28;;;-0.19;59.41
43741;BME280;29352;48.708;9.290;2023-02-14T08:00:16;99629.03;;;1.73;54.82
43741;BME280;29352;48.708;9.290;2023-02-14T08:02:42;99630.06;;;2.05;54.04
43741;BME280;29352;48.708;9.290;2023-02-14T08:05:08;99626.56;;;2.27;52.71
43741;BME280;29352;48.708;9.290;2023-02-14T08:07:34;99625.31;;;1.64;54.23
43741;BME280;29352;48.708;9.290;2023-02-14T08:09:59;99626.31;;;-0.32;57.92
43741;BME280;29352;48.708;9.290;2023-02-14T08:12:24;99625.88;;;1.10;56.13
43741;BME280;29352;48.708;9.290;2023-02-14T08:15:08;99631.09;;;-0.52;57.86
43741;BME280;29352;48.708;9.290;2023-02-14T08:17:54;99635.31;;;-0.49;58.54
43741;BME280;29352;48.708;9.290;2023-02-14T08:20:21;99627.16;;;0.80;56.93
43741;BME280;29352;48.708;9.290;2023-02-14T08:22:46;99640.16;;;-0.05;57.68
43741;BME280;29352;48.708;9.290;2023-02-14T08:25:11;99645.31;;;-0.16;61.05
43741;BME280;29352;48.708;9.290;2023-02-14T08:27:37;99635.53;;;0.12;57.86
43741;BME280;29352;48.708;9.290;2023-02-14T08:30:02;99633.47;;;1.26;57.02
43741;BME280;29352;48.708;9.290;2023-02-14T08:32:28;99634.31;;;0.78;56.65
43741;BME280;29352;48.708;9.290;2023-02-14T08:34:53;99628.22;;;2.28;53.45
43741;BME280;29352;48.708;9.290;2023-02-14T08:37:19;99623.78;;;3.16;52.83
43741;BME280;29352;48.708;9.290;2023-02-14T08:39:44;99629.56;;;2.00;54.40
43741;BME280;29352;48.708;9.290;2023-02-14T08:42:09;99623.22;;;3.12;52.72
43741;BME280;29352;48.708;9.290;2023-02-14T08:44:36;99628.41;;;1.69;57.23
43741;BME280;29352;48.708;9.290;2023-02-14T08:47:01;99623.56;;;2.87;53.19
43741;BME280;29352;48.708;9.290;2023-02-14T08:49:26;99624.34;;;1.54;56.76
43741;BME280;29352;48.708;9.290;2023-02-14T08:51:52;99621.22;;;1.60;56.64
43741;BME280;29352;48.708;9.290;2023-02-14T08:54:19;99614.00;;;2.20;55.24
43741;BME280;29352;48.708;9.290;2023-02-14T08:56:44;99621.84;;;1.28;56.52
43741;BME280;29352;48.708;9.290;2023-02-14T08:59:10;99629.81;;;0.18;59.42
43741;BME280;29352;48.708;9.290;2023-02-14T09:01:35;99613.97;;;1.39;57.80
43741;BME280;29352;48.708;9.290;2023-02-14T09:04:01;99624.13;;;0.98;58.52
43741;BME280;29352;48.708;9.290;2023-02-14T09:06:28;99619.16;;;0.82;58.13
43741;BME280;29352;48.708;9.290;2023-02-14T09:08:53;99620.97;;;0.44;59.34
43741;BME280;29352;48.708;9.290;2023-02-14T09:11:22;99622.91;;;0.17;59.35
43741;BME280;29352;48.708;9.290;2023-02-14T09:13:50;99624.78;;;0.40;59.71
43741;BME280;29352;48.708;9.290;2023-02-14T09:16:19;99623.53;;;0.33;59.25
43741;BME280;29352;48.708;9.290;2023-02-14T09:18:46;99618.19;;;1.42;57.01
43741;BME280;29352;48.708;9.290;2023-02-14T09:21:16;99611.19;;;1.65;58.52
43741;BME280;29352;48.708;9.290;2023-02-14T09:23:47;99610.47;;;0.44;58.92
43741;BME280;29352;48.708;9.290;2023-02-14T09:26:14;99596.56;;;1.50;57.37
43741;BME280;29352;48.708;9.290;2023-02-14T09:28:41;99605.09;;;1.18;56.82
43741;BME280;29352;48.708;9.290;2023-02-14T09:31:25;99598.06;;;2.21;55.62
43741;BME280;29352;48.708;9.290;2023-02-14T09:33:50;99588.34;;;2.76;54.73
43741;BME280;29352;48.708;9.290;2023-02-14T09:36:16;99592.72;;;3.30;53.79
43741;BME280;29352;48.708;9.290;2023-02-14T09:38:42;99601.19;;;1.35;57.20
43741;BME280;29352;48.708;9.290;2023-02-14T09:41:11;99594.50;;;1.42;56.84
43741;BME280;29352;48.708;9.290;2023-02-14T09:44:31;99595.72;;;1.03;58.68
43741;BME280;29352;48.708;9.290;2023-02-14T09:47:20;99590.81;;;1.45;57.09
43741;BME280;29352;48.708;9.290;2023-02-14T09:49:57;99588.47;;;1.75;57.36
43741;BME280;29352;48.708;9.290;2023-02-14T09:52:27;99582.44;;;3.16;54.57
43741;BME280;29352;48.708;9.290;2023-02-14T09:54:58;99579.81;;;4.29;53.48
43741;BME280;29352;48.708;9.290;2023-02-14T09:58:02;99582.66;;;3.97;52.40
43741;BME280;29352;48.708;9.290;2023-02-14T10:11:23;99580.88;;;1.48;57.56
43741;BME280;29352;48.708;9.290;2023-02-14T10:14:03;99576.69;;;2.58;55.35
43741;BME280;29352;48.708;9.290;2023-02-14T10:19:50;99577.03;;;1.99;57.03
43741;BME280;29352;48.708;9.290;2023-02-14T10:22:33;99563.84;;;2.10;56.97
43741;BME280;29352;48.708;9.290;2023-02-14T10:28:31;99548.03;;;4.50;53.02
43741;BME280;29352;48.708;9.290;2023-02-14T10:33:53;99549.06;;;4.18;52.92
43741;BME280;29352;48.708;9.290;2023-02-14T10:36:33;99540.09;;;5.28;51.85
43741;BME280;29352;48.708;9.290;2023-02-14T10:39:22;99543.47;;;5.57;50.91
43741;BME280;29352;48.708;9.290;2023-02-14T10:42:59;99541.09;;;5.74;49.54
43741;BME280;29352;48.708;9.290;2023-02-14T10:48:02;99532.09;;;3.80;54.16
43741;BME280;29352;48.708;9.290;2023-02-14T10:51:14;99542.66;;;3.08;55.08
43741;BME280;29352;48.708;9.290;2023-02-14T10:54:26;99532.56;;;3.13;54.88
43741;BME280;29352;48.708;9.290;2023-02-14T10:57:19;99525.28;;;4.18;53.61
43741;BME280;29352;48.708;9.290;2023-02-14T11:00:07;99514.75;;;4.38;51.95
43741;BME280;29352;48.708;9.290;2023-02-14T11:02:56;99519.63;;;3.10;54.41
43741;BME280;29352;48.708;9.290;2023-02-14T11:07:59;99514.78;;;3.15;55.14
43741;BME280;29352;48.708;9.290;2023-02-14T11:10:32;99503.78;;;5.01;51.81
43741;BME280;29352;48.708;9.290;2023-02-14T11:12:59;99501.03;;;5.86;50.57
43741;BME280;29352;48.708;9.290;2023-02-14T11:15:34;99489.94;;;6.19;50.54
43741;BME280;29352;48.708;9.290;2023-02-14T11:18:21;99492.53;;;5.36;51.23
43741;BME280;29352;48.708;9.290;2023-02-14T11:23:32;99481.53;;;5.78;50.32
43741;BME280;29352;48.708;9.290;2023-02-14T11:26:02;99483.31;;;4.73;52.56
43741;BME280;29352;48.708;9.290;2023-02-14T11:28:33;99484.78;;;4.08;53.63
43741;BME280;29352;48.708;9.290;2023-02-14T11:31:00;99490.06;;;3.58;54.25
43741;BME280;29352;48.708;9.290;2023-02-14T11:33:36;99490.66;;;4.41;52.82
43741;BME280;29352;48.708;9.290;2023-02-14T11:36:10;99479.03;;;3.84;54.87
43741;BME280;29352;48.708;9.290;2023-02-14T11:38:39;99476.31;;;4.34;53.42
43741;BME280;29352;48.708;9.290;2023-02-14T11:41:09;99477.16;;;4.24;53.85
43741;BME280;29352;48.708;9.290;2023-02-14T11:43:39;99470.59;;;4.09;53.10
43741;BME280;29352;48.708;9.290;2023-02-14T11:48:58;99461.25;;;4.05;53.56
43741;BME280;29352;48.708;9.290;2023-02-14T11:51:29;99469.00;;;3.37;54.74
43741;BME280;29352;48.708;9.290;2023-02-14T11:54:01;99464.50;;;2.86;55.12
43741;BME280;29352;48.708;9.290;2023-02-14T11:56:52;99451.50;;;3.46;54.77
43741;BME280;29352;48.708;9.290;2023-02-14T11:59:34;99448.38;;;3.71;54.58
43741;BME280;29352;48.708;9.290;2023-02-14T12:02:45;99441.09;;;3.94;53.76
43741;BME280;29352;48.708;9.290;2023-02-14T12:05:31;99431.94;;;4.08;53.56
43741;BME280;29352;48.708;9.290;2023-02-14T12:08:06;99439.75;;;4.29;53.74
43741;BME280;29352;48.708;9.290;2023-02-14T12:10:36;99431.13;;;4.76;52.38
43741;BME280;29352;48.708;9.290;2023-02-14T12:15:49;99421.03;;;4.98;52.28
43741;BME280;29352;48.708;9.290;2023-02-14T12:26:26;99408.59;;;4.62;53.17
43741;BME280;29352;48.708;9.290;2023-02-14T12:29:20;99406.91;;;4.51;54.47
43741;BME280;29352;48.708;9.290;2023-02-14T12:31:52;99407.75;;;4.32;54.00
43741;BME280;29352;48.708;9.290;2023-02-14T12:34:21;99405.13;;;5.08;53.23
43741;BME280;29352;48.708;9.290;2023-02-14T12:37:11;99400.38;;;5.49;52.57
43741;BME280;29352;48.708;9.290;2023-02-14T12:49:01;99384.06;;;5.44;53.31
43741;BME280;29352;48.708;9.290;2023-02-14T12:58:08;99375.13;;;4.90;53.52
43741;BME280;29352;48.708;9.290;2023-02-14T13:00:53;99369.28;;;4.86;53.30
43741;BME280;29352;48.708;9.290;2023-02-14T13:06:33;99355.94;;;5.43;52.86
43741;BME280;29352;48.708;9.290;2023-02-14T13:09:35;99352.91;;;5.38;52.96
43741;BME280;29352;48.708;9.290;2023-02-14T13:12:33;99353.00;;;6.09;52.45
43741;BME280;29352;48.708;9.290;2023-02-14T13:18:40;99340.69;;;6.44;52.28
43741;BME280;29352;48.708;9.290;2023-02-14T13:21:21;99340.06;;;6.50;51.89
43741;BME280;29352;48.708;9.290;2023-02-14T13:23:57;99340.63;;;6.36;51.33
43741;BME280;29352;48.708;9.290;2023-02-14T13:26:42;99334.03;;;6.40;51.23
43741;BME280;29352;48.708;9.290;2023-02-14T13:29:16;99335.63;;;6.33;51.26
43741;BME280;29352;48.708;9.290;2023-02-14T13:31:45;99327.50;;;6.52;51.83
43741;BME280;29352;48.708;9.290;2023-02-14T13:34:22;99326.16;;;6.30;52.07
43741;BME280;29352;48.708;9.290;2023-02-14T13:36:56;99324.88;;;6.60;52.17
43741;BME280;29352;48.708;9.290;2023-02-14T13:39:34;99317.94;;;6.59;51.12
43741;BME280;29352;48.708;9.290;2023-02-14T13:42:04;99316.38;;;6.49;50.82
43741;BME280;29352;48.708;9.290;2023-02-14T13:44:46;99317.28;;;6.65;50.83
43741;BME280;29352;48.708;9.290;2023-02-14T13:47:24;99316.78;;;6.36;51.70
43741;BME280;29352;48.708;9.290;2023-02-14T13:49:59;99312.47;;;6.35;52.07
43741;BME280;29352;48.708;9.290;2023-02-14T13:55:23;99311.38;;;6.28;52.42
43741;BME280;29352;48.708;9.290;2023-02-14T13:58:16;99308.06;;;6.26;53.15
43741;BME280;29352;48.708;9.290;2023-02-14T14:00:46;99307.16;;;6.17;54.03
43741;BME280;29352;48.708;9.290;2023-02-14T14:05:58;99305.22;;;6.19;53.50
43741;BME280;29352;48.708;9.290;2023-02-14T14:11:00;99313.44;;;6.34;53.81
43741;BME280;29352;48.708;9.290;2023-02-14T14:22:04;99305.91;;;5.67;55.37
43741;BME280;29352;48.708;9.290;2023-02-14T14:24:39;99298.41;;;5.63;56.10
43741;BME280;29352;48.708;9.290;2023-02-14T14:27:19;99299.72;;;5.77;56.45
43741;BME280;29352;48.708;9.290;2023-02-14T14:30:00;99299.81;;;5.57;56.73
43741;BME280;29352;48.708;9.290;2023-02-14T14:32:33;99302.28;;;5.68;56.94
43741;BME280;29352;48.708;9.290;2023-02-14T14:35:15;99296.38;;;5.29;57.72
43741;BME280;29352;48.708;9.290;2023-02-14T14:37:54;99298.69;;;5.14;57.83
43741;BME280;29352;48.708;9.290;2023-02-14T14:40:28;99297.91;;;5.04;58.81
43741;BME280;29352;48.708;9.290;2023-02-14T14:45:34;99290.19;;;4.93;58.81
43741;BME280;29352;48.708;9.290;2023-02-14T14:48:08;99291.72;;;4.86;59.10
43741;BME280;29352;48.708;9.290;2023-02-14T14:50:43;99293.59;;;4.76;59.21
43741;BME280;29352;48.708;9.290;2023-02-14T14:53:46;99287.69;;;4.82;60.02
43741;BME280;29352;48.708;9.290;2023-02-14T14:59:35;99282.66;;;4.51;59.95
43741;BME280;29352;48.708;9.290;2023-02-14T15:02:26;99285.88;;;4.35;60.92
43741;BME280;29352;48.708;9.290;2023-02-14T15:04:54;99278.59;;;4.47;60.03
43741;BME280;29352;48.708;9.290;2023-02-14T15:07:26;99280.31;;;4.38;61.41
43741;BME280;29352;48.708;9.290;2023-02-14T15:09:56;99287.44;;;3.99;61.99
43741;BME280;29352;48.708;9.290;2023-02-14T15:12:23;99285.78;;;3.98;62.05
43741;BME280;29352;48.708;9.290;2023-02-14T15:15:14;99284.41;;;4.13;61.33
43741;BME280;29352;48.708;9.290;2023-02-14T15:17:43;99289.09;;;4.10;61.84
43741;BME280;29352;48.708;9.290;2023-02-14T15:20:19;99290.13;;;3.89;62.40
43741;BME280;29352;48.708;9.290;2023-02-14T15:22:49;99285.78;;;3.59;62.62
43741;BME280;29352;48.708;9.290;2023-02-14T15:25:19;99285.66;;;3.70;62.69
43741;BME280;29352;48.708;9.290;2023-02-14T15:27:48;99286.47;;;3.42;62.76
43741;BME280;29352;48.708;9.290;2023-02-14T15:32:44;99286.75;;;3.39;63.68
43741;BME280;29352;48.708;9.290;2023-02-14T15:35:14;99285.97;;;3.17;64.39
43741;BME280;29352;48.708;9.290;2023-02-14T15:37:43;99290.25;;;2.78;65.41
43741;BME280;29352;48.708;9.290;2023-02-14T15:40:20;99284.78;;;2.91;65.08
43741;BME280;29352;48.708;9.290;2023-02-14T15:42:49;99282.69;;;2.94;65.18
43741;BME280;29352;48.708;9.290;2023-02-14T15:45:28;99282.34;;;2.68;66.14
43741;BME280;29352;48.708;9.290;2023-02-14T15:47:56;99281.84;;;2.32;66.86